Time;durP1;ratioP1;P1;durP2;ratioP2;P2;SDS_P1;SDS_P2;PMS_P1;PMS_P2;Temp;Humidity;BMP_temperature;BMP_pressure;BME280_temperature;BME280_humidity;BME280_pressure;Samples;Min_cycle;Max_cycle;Signal;HPM_P1;HPM_P2
2023/07/14 11:31:38;;;;;;;8.88;2.92;;;25.50;92.80;;;;;;5128392;27;20483;-77
2023/07/14 11:34:40;;;;;;;7.28;3.20;;;25.60;93.30;;;;;;5128789;27;20043;-79
2023/07/14 11:37:59;;;;;;;11.60;3.47;;;25.70;92.60;;;;;;5148009;27;20051;-76
2023/07/14 11:40:47;;;;;;;8.88;2.75;;;25.60;91.70;;;;;;5147161;27;20460;-78
2023/07/14 11:43:33;;;;;;;5.97;2.92;;;25.10;91.50;;;;;;5129498;27;20383;-77
2023/07/14 11:46:21;;;;;;;6.30;2.80;;;25.10;91.70;;;;;;5168475;27;20594;-83
2023/07/14 11:49:23;;;;;;;6.80;2.47;;;26.00;92.50;;;;;;5168893;27;20066;-80
2023/07/14 11:52:12;;;;;;;6.75;2.95;;;26.70;91.20;;;;;;5168218;27;20098;-80
2023/07/14 11:55:05;;;;;;;6.63;2.70;;;26.80;90.00;;;;;;5155602;27;20056;-80
2023/07/14 11:58:00;;;;;;;9.02;3.30;;;27.40;90.30;;;;;;5169482;27;20336;-79
2023/07/14 18:55:18;;;;;;;7.57;3.58;;;21.90;99.90;;;;;;5134585;27;20480;-80
2023/07/14 18:58:21;;;;;;;7.95;3.30;;;21.70;99.90;;;;;;5110518;27;20051;-78
2023/07/14 19:01:12;;;;;;;7.15;3.17;;;21.60;99.90;;;;;;5094696;27;20066;-79
2023/07/14 19:03:59;;;;;;;6.05;3.20;;;21.60;99.90;;;;;;5109578;27;20079;-82
2023/07/14 19:06:46;;;;;;;8.50;3.85;;;21.50;99.90;;;;;;5133963;27;20052;-80
2023/07/14 19:09:32;;;;;;;8.50;3.63;;;21.50;99.90;;;;;;5106595;27;20050;-83
2023/07/14 19:12:22;;;;;;;6.93;3.10;;;21.40;99.90;;;;;;5110375;27;20091;-81
2023/07/14 19:15:26;;;;;;;8.77;3.45;;;21.30;99.90;;;;;;5108206;27;20117;-82
2023/07/14 19:18:21;;;;;;;9.30;3.85;;;21.30;99.90;;;;;;5121937;27;20053;-82
2023/07/14 19:21:14;;;;;;;9.32;3.33;;;21.10;99.90;;;;;;5131825;27;20057;-81
2023/07/14 19:24:00;;;;;;;7.38;3.70;;;21.00;99.90;;;;;;5132829;27;20043;-82
2023/07/14 19:26:49;;;;;;;7.72;3.15;;;20.90;99.90;;;;;;5114206;27;20050;-82
2023/07/14 19:29:36;;;;;;;9.93;3.20;;;20.80;99.90;;;;;;5127580;27;20487;-81
2023/07/14 19:32:22;;;;;;;7.97;3.88;;;20.70;99.90;;;;;;5125797;27;20040;-81
2023/07/14 19:35:20;;;;;;;10.77;4.45;;;20.60;99.90;;;;;;5126257;27;20138;-85
2023/07/14 19:38:11;;;;;;;8.10;3.53;;;20.60;99.90;;;;;;5126630;27;20126;-81
2023/07/14 19:40:58;;;;;;;7.00;3.28;;;20.50;99.90;;;;;;5126299;27;20127;-81
2023/07/14 19:43:48;;;;;;;8.52;3.67;;;20.40;99.90;;;;;;5127522;27;20051;-81
2023/07/14 19:46:35;;;;;;;7.88;3.45;;;20.40;99.90;;;;;;5125688;27;20055;-80
2023/07/14 19:49:21;;;;;;;6.63;3.75;;;20.30;99.90;;;;;;5124754;27;20479;-81
2023/07/14 19:52:09;;;;;;;5.80;2.97;;;20.20;99.90;;;;;;5110873;27;20075;-82
2023/07/14 19:54:55;;;;;;;7.53;3.65;;;20.20;99.90;;;;;;5125583;27;20066;-81
2023/07/14 19:57:43;;;;;;;6.47;3.03;;;20.20;99.90;;;;;;5125704;27;20499;-79
2023/07/14 20:00:31;;;;;;;7.70;3.63;;;20.10;99.90;;;;;;5123976;27;20047;-81
2023/07/14 20:03:20;;;;;;;7.20;3.00;;;20.10;99.90;;;;;;5126233;27;20062;-81
2023/07/14 20:06:24;;;;;;;7.43;3.20;;;20.10;99.90;;;;;;5126629;27;20044;-82
2023/07/14 20:09:10;;;;;;;6.55;2.97;;;20.00;99.90;;;;;;5111790;27;20476;-81
2023/07/14 20:11:57;;;;;;;7.60;4.05;;;20.00;99.90;;;;;;5113800;27;20057;-81
2023/07/14 20:14:44;;;;;;;6.18;3.20;;;20.00;99.90;;;;;;5127620;27;20134;-81
2023/07/14 20:17:37;;;;;;;8.05;3.45;;;19.90;99.90;;;;;;5125654;27;20088;-81
2023/07/14 20:20:24;;;;;;;6.38;3.20;;;19.90;99.90;;;;;;5111271;27;20042;-83
2023/07/14 20:23:20;;;;;;;7.35;3.53;;;19.90;99.90;;;;;;5130635;27;20052;-81
2023/07/14 20:26:16;;;;;;;7.35;3.47;;;19.80;99.90;;;;;;5112147;27;20108;-81
2023/07/14 20:29:03;;;;;;;8.43;3.80;;;19.80;99.90;;;;;;5097811;28;20051;-81
2023/07/14 20:31:50;;;;;;;8.23;3.63;;;19.80;99.90;;;;;;5114176;27;20079;-81
2023/07/14 20:34:37;;;;;;;6.57;3.50;;;19.80;99.90;;;;;;5104501;28;20074;-81
2023/07/14 20:37:23;;;;;;;6.88;3.67;;;19.70;99.90;;;;;;5113663;27;20075;-81
2023/07/14 20:40:13;;;;;;;8.68;3.42;;;19.70;99.90;;;;;;5112714;27;20039;-80
2023/07/14 20:42:59;;;;;;;6.70;3.70;;;19.70;99.90;;;;;;5134282;27;20082;-81
2023/07/14 20:45:47;;;;;;;7.90;3.60;;;19.60;99.90;;;;;;5131048;27;20053;-83
2023/07/14 20:48:33;;;;;;;8.20;4.18;;;19.60;99.90;;;;;;5134656;27;20065;-84
2023/07/14 20:51:21;;;;;;;7.43;3.58;;;19.50;99.90;;;;;;5132673;27;20043;-84
2023/07/14 20:54:12;;;;;;;6.60;3.65;;;19.50;99.90;;;;;;5131078;27;20562;-82
2023/07/14 20:56:58;;;;;;;8.73;3.95;;;19.50;99.90;;;;;;5132788;27;20513;-82
2023/07/14 20:59:45;;;;;;;7.70;4.20;;;19.40;99.90;;;;;;5131282;27;20051;-83
2023/07/14 21:02:31;;;;;;;9.32;3.97;;;19.50;99.90;;;;;;5133321;27;20047;-82
2023/07/14 21:05:18;;;;;;;7.25;3.25;;;19.40;99.90;;;;;;5131049;27;20566;-82
2023/07/14 21:08:23;;;;;;;8.38;3.58;;;19.40;99.90;;;;;;5133491;27;20491;-81
2023/07/14 21:11:09;;;;;;;;;;;19.40;99.90;;;;;;5133058;27;20047;-82
2023/07/14 21:13:58;;;;;;;6.05;3.33;;;19.40;99.90;;;;;;5132829;27;19923;-81
2023/07/14 21:16:44;;;;;;;7.82;3.65;;;19.30;99.90;;;;;;5132356;27;20057;-82
2023/07/14 21:19:30;;;;;;;7.72;4.55;;;19.30;99.90;;;;;;5133461;27;20108;-82
2023/07/14 21:22:19;;;;;;;5.75;3.40;;;19.30;99.90;;;;;;5132158;27;20078;-83
2023/07/14 21:25:08;;;;;;;9.52;4.03;;;19.30;99.90;;;;;;5132957;27;20100;-83
2023/07/14 21:27:54;;;;;;;7.78;4.22;;;19.20;99.90;;;;;;5133784;27;20156;-82
2023/07/14 21:30:45;;;;;;;8.77;4.13;;;19.20;99.90;;;;;;5131144;27;20090;-81
2023/07/14 21:33:36;;;;;;;6.45;4.18;;;19.20;99.90;;;;;;5132786;27;20043;-82
2023/07/14 21:36:23;;;;;;;8.40;4.32;;;19.20;99.90;;;;;;5132698;27;20499;-81
2023/07/14 21:39:14;;;;;;;9.13;3.72;;;19.20;99.90;;;;;;5131985;27;20051;-82
2023/07/14 21:42:00;;;;;;;7.97;4.68;;;19.20;99.90;;;;;;5130861;27;20062;-81
2023/07/14 21:44:48;;;;;;;8.55;4.50;;;19.20;99.90;;;;;;5131905;27;20050;-81
2023/07/14 21:47:34;;;;;;;6.45;4.03;;;19.20;99.90;;;;;;5132700;27;20050;-82
2023/07/14 21:50:20;;;;;;;8.80;5.10;;;19.20;99.90;;;;;;5130443;27;20104;-83
2023/07/14 21:53:20;;;;;;;7.57;4.38;;;19.20;99.90;;;;;;5131141;27;20091;-84
2023/07/14 21:56:08;;;;;;;8.32;4.50;;;19.10;99.90;;;;;;5132736;27;20111;-82
2023/07/14 21:58:54;;;;;;;8.85;4.05;;;19.10;99.90;;;;;;5133646;27;20043;-83
2023/07/14 22:01:44;;;;;;;9.90;4.30;;;19.10;99.90;;;;;;5132498;27;20038;-82
2023/07/14 22:04:33;;;;;;;9.52;4.55;;;19.10;99.90;;;;;;5131763;27;20047;-80
2023/07/14 22:07:19;;;;;;;7.85;4.03;;;19.10;99.90;;;;;;5134131;27;20062;-81
2023/07/14 22:10:06;;;;;;;13.07;5.38;;;19.10;99.90;;;;;;5117462;27;20095;-81
2023/07/14 22:12:53;;;;;;;7.78;5.00;;;19.10;99.90;;;;;;5133979;27;20043;-81
2023/07/14 22:15:39;;;;;;;10.55;5.65;;;19.10;99.90;;;;;;5132419;27;20142;-82
2023/07/14 22:18:30;;;;;;;10.00;4.88;;;19.20;99.90;;;;;;5132538;27;20054;-83
2023/07/14 22:21:20;;;;;;;9.30;4.40;;;19.20;99.90;;;;;;5133217;27;20055;-83
2023/07/14 22:24:09;;;;;;;10.88;5.03;;;19.10;99.90;;;;;;5135159;27;20051;-83
2023/07/14 22:26:55;;;;;;;9.73;5.47;;;19.10;99.90;;;;;;5134587;27;20491;-84
2023/07/14 22:29:41;;;;;;;10.68;5.50;;;19.10;99.90;;;;;;5135263;27;20050;-82
2023/07/14 22:32:28;;;;;;;8.77;5.35;;;19.10;99.90;;;;;;5133552;27;20078;-82
2023/07/14 22:35:14;;;;;;;9.35;5.32;;;19.20;99.90;;;;;;5133797;27;20047;-82
2023/07/14 22:38:01;;;;;;;7.25;4.70;;;19.10;99.90;;;;;;5117603;27;20460;-82
2023/07/14 22:40:50;;;;;;;13.50;5.13;;;19.10;99.90;;;;;;5130870;27;20055;-83
2023/07/14 22:43:37;;;;;;;10.27;5.43;;;19.10;99.90;;;;;;5133045;27;20189;-83
2023/07/14 22:46:23;;;;;;;9.30;5.03;;;19.20;99.90;;;;;;5131966;27;20078;-80
2023/07/14 22:49:13;;;;;;;12.63;5.20;;;19.20;99.90;;;;;;5131840;27;20503;-83
2023/07/14 22:51:59;;;;;;;9.93;5.53;;;19.20;99.90;;;;;;5131764;28;20130;-82
2023/07/14 22:54:47;;;;;;;10.70;5.57;;;19.20;99.90;;;;;;5130449;28;20077;-83
2023/07/14 22:57:33;;;;;;;9.30;5.00;;;19.20;99.90;;;;;;5132056;27;20137;-82
2023/07/14 23:00:19;;;;;;;9.25;5.43;;;19.20;99.90;;;;;;5130968;28;20151;-83
2023/07/14 23:03:25;;;;;;;9.15;5.47;;;19.20;99.90;;;;;;5132060;27;20040;-81
2023/07/14 23:06:15;;;;;;;10.60;5.72;;;19.20;99.90;;;;;;5129635;28;20479;-82
2023/07/14 23:09:01;;;;;;;10.00;4.95;;;19.10;99.90;;;;;;5132205;28;20086;-82
2023/07/14 23:11:48;;;;;;;8.80;5.13;;;19.10;99.90;;;;;;5131691;28;20050;-81
2023/07/14 23:14:34;;;;;;;8.73;5.68;;;19.10;99.90;;;;;;5136023;27;20090;-82
2023/07/14 23:17:20;;;;;;;9.40;5.82;;;19.10;99.90;;;;;;5134994;27;20054;-83
2023/07/14 23:20:10;;;;;;;13.40;6.25;;;19.10;99.90;;;;;;5133941;28;20043;-83
2023/07/14 23:22:56;;;;;;;10.63;6.50;;;19.10;99.90;;;;;;5129420;28;20054;-82
2023/07/14 23:25:43;;;;;;;12.00;6.13;;;19.10;99.90;;;;;;5131531;28;20418;-83
2023/07/14 23:28:29;;;;;;;11.18;6.53;;;19.00;99.90;;;;;;5131471;27;20089;-81
2023/07/14 23:31:17;;;;;;;11.77;5.85;;;19.00;99.90;;;;;;5130638;28;20047;-83
2023/07/14 23:34:10;;;;;;;12.05;5.57;;;19.00;99.90;;;;;;5130060;28;20047;-83
2023/07/14 23:36:56;;;;;;;11.57;6.28;;;18.90;99.90;;;;;;5131322;28;20051;-83
2023/07/14 23:39:43;;;;;;;14.45;6.30;;;18.90;99.90;;;;;;5132064;27;20057;-82
2023/07/14 23:42:29;;;;;;;9.73;6.07;;;18.90;99.90;;;;;;5134581;27;20490;-83
2023/07/14 23:45:23;;;;;;;10.18;6.03;;;18.90;99.90;;;;;;5137793;27;20043;-83
2023/07/14 23:48:13;;;;;;;9.93;5.17;;;18.80;99.90;;;;;;5137032;27;20050;-81
2023/07/14 23:50:59;;;;;;;11.48;5.47;;;18.80;99.90;;;;;;5137098;27;20051;-82
2023/07/14 23:53:45;;;;;;;12.55;5.35;;;18.80;99.90;;;;;;5138971;27;20098;-83
2023/07/14 23:56:36;;;;;;;10.55;6.18;;;18.80;99.90;;;;;;5136120;27;20043;-81
2023/07/14 23:59:23;;;;;;;9.70;5.53;;;18.80;99.90;;;;;;5135938;27;20082;-83
